createdAt,value
2018-07-05T00:00:50.907Z,71.18
2018-07-05T00:01:50.903Z,71.37
2018-07-05T00:02:50.881Z,71.95
2018-07-05T00:03:50.873Z,71.76
2018-07-05T00:04:50.859Z,71.66
2018-07-05T00:05:50.902Z,72.24
2018-07-05T00:06:50.845Z,72.24
2018-07-05T00:07:50.823Z,72.43
2018-07-05T00:08:50.814Z,73.01
2018-07-05T00:09:50.803Z,73.01
2018-07-05T00:10:50.785Z,72.68
2018-07-05T00:11:50.808Z,73.10
2018-07-05T00:12:50.782Z,73.30
2018-07-05T00:13:50.779Z,72.97
2018-07-05T00:14:50.739Z,73.20
2018-07-05T00:15:50.732Z,73.65
2018-07-05T00:16:50.728Z,73.74
2018-07-05T00:17:50.720Z,74.22
2018-07-05T00:18:50.698Z,74.41
2018-07-05T00:19:50.685Z,74.41
2018-07-05T00:20:50.669Z,74.41
2018-07-05T00:21:50.663Z,74.99
2018-07-05T00:22:50.657Z,75.48
2018-07-05T00:23:50.649Z,75.67
2018-07-05T00:24:50.625Z,75.82
2018-07-05T00:25:50.624Z,75.82
2018-07-05T00:26:50.647Z,75.76
2018-07-05T00:27:50.601Z,75.76
2018-07-05T00:28:50.583Z,75.76
2018-07-05T00:29:50.597Z,75.86
2018-07-05T00:30:50.554Z,75.86
2018-07-05T00:31:50.542Z,75.48
2018-07-05T00:32:50.575Z,75.96
2018-07-05T00:33:50.534Z,75.38
2018-07-05T00:34:50.534Z,75.57
2018-07-05T00:35:50.511Z,75.28
2018-07-05T00:36:50.490Z,75.48
2018-07-05T00:37:50.476Z,75.57
2018-07-05T00:38:50.468Z,75.57
2018-07-05T00:39:50.471Z,76.44
2018-07-05T00:40:50.457Z,76.63
2018-07-05T00:41:50.426Z,76.15
2018-07-05T00:42:50.422Z,76.63
2018-07-05T00:43:50.413Z,76.69
2018-07-05T00:44:50.397Z,77.21
2018-07-05T00:45:50.396Z,77.31
2018-07-05T00:46:50.392Z,77.50
2018-07-05T00:47:50.376Z,77.31
2018-07-05T00:48:50.352Z,77.50
2018-07-05T00:49:50.344Z,77.26
2018-07-05T00:50:50.386Z,77.65
2018-07-05T00:51:50.366Z,78.52
2018-07-05T00:52:50.366Z,79.00
2018-07-05T00:53:50.283Z,79.48
2018-07-05T00:54:50.279Z,79.38
2018-07-05T00:55:50.279Z,79.86
2018-07-05T00:56:50.268Z,80.06
2018-07-05T00:57:50.236Z,79.96
2018-07-05T00:58:50.230Z,80.15
2018-07-05T00:59:50.227Z,79.96
2018-07-05T01:00:50.213Z,79.96
2018-07-05T01:01:50.199Z,80.54
2018-07-05T01:02:50.201Z,80.44
2018-07-05T01:03:50.170Z,80.25
2018-07-05T01:04:50.158Z,80.25
2018-07-05T01:05:50.149Z,80.54
2018-07-05T01:06:50.137Z,81.27
2018-07-05T01:07:50.143Z,80.44
2018-07-05T01:08:50.114Z,81.65
2018-07-05T01:09:50.104Z,82.04
2018-07-05T01:10:50.086Z,82.04
2018-07-05T01:11:50.089Z,82.71
2018-07-05T01:12:50.067Z,82.81
2018-07-05T01:13:50.072Z,82.81
2018-07-05T01:14:50.036Z,83.00
2018-07-05T01:15:50.030Z,83.67
2018-07-05T01:16:50.028Z,83.58
2018-07-05T01:17:50.018Z,83.58
2018-07-05T01:18:50.000Z,83.19
2018-07-05T01:19:49.980Z,83.77
2018-07-05T01:20:49.963Z,83.48
2018-07-05T01:21:49.951Z,84.34
2018-07-05T01:22:49.958Z,84.25
2018-07-05T01:23:49.930Z,84.16
2018-07-05T01:24:49.923Z,84.25
2018-07-05T01:25:49.912Z,83.96
2018-07-05T01:26:49.890Z,84.63
2018-07-05T01:27:49.887Z,84.54
2018-07-05T01:28:49.874Z,84.34
2018-07-05T01:29:49.858Z,84.83
2018-07-05T01:30:49.859Z,84.34
2018-07-05T01:31:49.834Z,85.65
2018-07-05T01:32:49.826Z,85.46
2018-07-05T01:33:49.814Z,85.55
2018-07-05T01:34:49.796Z,86.22
2018-07-05T01:35:49.787Z,86.32
2018-07-05T01:36:49.776Z,86.71
2018-07-05T01:37:49.762Z,86.61
2018-07-05T01:38:49.760Z,86.71
2018-07-05T01:39:49.734Z,86.80
2018-07-05T01:40:49.742Z,86.80
2018-07-05T01:41:49.717Z,86.52
2018-07-05T01:42:49.698Z,86.52
2018-07-05T01:43:49.703Z,86.90
2018-07-05T01:44:49.672Z,87.48
2018-07-05T01:45:49.667Z,87.09
2018-07-05T01:46:49.653Z,87.38
2018-07-05T01:47:49.636Z,87.29
2018-07-05T01:48:49.628Z,87.67
2018-07-05T01:49:49.641Z,87.67
2018-07-05T01:50:49.648Z,88.06
2018-07-05T01:51:49.606Z,88.53
2018-07-05T01:52:49.585Z,88.59
2018-07-05T01:53:49.563Z,88.87
2018-07-05T01:54:49.560Z,89.01
2018-07-05T01:55:49.553Z,89.01
2018-07-05T01:56:49.529Z,89.01
2018-07-05T01:57:49.524Z,88.92
2018-07-05T01:58:49.506Z,88.82
2018-07-05T01:59:49.492Z,88.30
2018-07-05T02:00:49.484Z,88.53
2018-07-05T02:01:49.470Z,89.26
2018-07-05T02:02:49.457Z,89.45
2018-07-05T02:03:49.437Z,89.54
2018-07-05T02:04:49.435Z,89.93
2018-07-05T02:05:49.420Z,89.93
2018-07-05T02:06:49.493Z,90.03
2018-07-05T02:07:49.390Z,89.93
2018-07-05T02:08:49.396Z,90.22
2018-07-05T02:09:49.380Z,90.41
2018-07-05T02:10:49.377Z,90.41
2018-07-05T02:11:49.401Z,90.51
2018-07-05T02:12:49.339Z,90.60
2018-07-05T02:13:49.314Z,90.80
2018-07-05T02:14:49.305Z,90.60
2018-07-05T02:15:49.292Z,90.51
2018-07-05T02:16:49.278Z,90.70
2018-07-05T02:17:49.282Z,90.51
2018-07-05T02:18:49.257Z,90.22
2018-07-05T02:19:49.240Z,90.51
2018-07-05T02:20:49.226Z,90.41
2018-07-05T02:21:49.227Z,90.70
2018-07-05T02:22:49.222Z,90.89
2018-07-05T02:23:49.192Z,91.28
2018-07-05T02:24:49.180Z,91.28
2018-07-05T02:25:49.172Z,91.56
2018-07-05T02:26:49.211Z,91.47
2018-07-05T02:27:49.145Z,92.05
2018-07-05T02:28:49.130Z,91.95
2018-07-05T02:29:49.116Z,91.66
2018-07-05T02:30:49.101Z,91.95
2018-07-05T02:31:49.095Z,92.43
2018-07-05T02:32:49.075Z,92.14
2018-07-05T02:33:49.090Z,92.43
2018-07-05T02:34:49.057Z,92.81
2018-07-05T02:35:49.065Z,92.33
2018-07-05T02:36:49.062Z,92.24
2018-07-05T02:37:49.015Z,91.85
2018-07-05T02:38:49.006Z,92.24
2018-07-05T02:39:48.989Z,91.66
2018-07-05T02:40:48.990Z,91.85
2018-07-05T02:41:48.969Z,92.14
2018-07-05T02:42:48.952Z,91.95
2018-07-05T02:43:48.949Z,92.43
2018-07-05T02:44:48.928Z,92.81
2018-07-05T02:45:48.912Z,92.81
2018-07-05T02:46:48.907Z,92.81
2018-07-05T02:47:48.895Z,93.44
2018-07-05T02:48:48.889Z,93.25
2018-07-05T02:49:48.872Z,93.19
2018-07-05T02:50:48.858Z,94.21
2018-07-05T02:51:48.849Z,94.11
2018-07-05T02:52:48.844Z,94.40
2018-07-05T02:53:48.823Z,94.31
2018-07-05T02:54:48.801Z,94.11
2018-07-05T02:55:48.837Z,94.40
2018-07-05T02:56:48.778Z,94.40
2018-07-05T02:57:48.766Z,94.78
2018-07-05T02:58:48.755Z,95.55
2018-07-05T02:59:48.750Z,95.07
2018-07-05T03:00:48.724Z,95.65
2018-07-05T03:01:48.708Z,96.03
2018-07-05T03:02:48.706Z,96.42
2018-07-05T03:03:48.702Z,96.85
2018-07-05T03:04:48.712Z,96.13
2018-07-05T03:05:48.673Z,96.18
2018-07-05T03:06:48.649Z,96.37
2018-07-05T03:07:48.636Z,96.13
2018-07-05T03:08:48.616Z,96.89
2018-07-05T03:09:48.616Z,96.70
2018-07-05T03:10:48.619Z,96.75
2018-07-05T03:11:48.582Z,97.38
2018-07-05T03:12:48.574Z,97.14
2018-07-05T03:13:48.551Z,97.61
2018-07-05T03:14:48.551Z,97.52
2018-07-05T03:15:48.534Z,97.33
2018-07-05T03:16:48.527Z,97.14
2018-07-05T03:17:48.510Z,97.91
2018-07-05T03:18:48.489Z,98.00
2018-07-05T03:19:48.490Z,97.71
2018-07-05T03:20:48.483Z,98.10
2018-07-05T03:21:48.454Z,98.19
2018-07-05T03:22:48.440Z,98.10
2018-07-05T03:23:48.427Z,97.91
2018-07-05T03:24:48.412Z,98.10
2018-07-05T03:25:48.421Z,98.00
2018-07-05T03:26:48.390Z,98.10
2018-07-05T03:27:48.377Z,98.19
2018-07-05T03:28:48.370Z,98.48
2018-07-05T03:29:48.355Z,98.29
2018-07-05T03:30:48.343Z,98.48
2018-07-05T03:31:48.329Z,98.96
2018-07-05T03:32:48.311Z,98.96
2018-07-05T03:33:48.300Z,98.96
2018-07-05T03:34:48.307Z,98.96
2018-07-05T03:35:48.279Z,99.54
2018-07-05T03:36:48.253Z,98.96
2018-07-05T03:37:48.240Z,99.34
2018-07-05T03:38:48.235Z,99.82
2018-07-05T03:39:48.231Z,99.73
2018-07-05T03:40:48.210Z,99.63
2018-07-05T03:41:48.191Z,99.54
2018-07-05T03:42:48.179Z,99.99
2018-07-05T03:43:48.169Z,99.99
2018-07-05T03:44:48.166Z,99.99
2018-07-05T03:45:48.149Z,99.99
2018-07-05T03:46:48.122Z,99.99
2018-07-05T03:47:48.109Z,99.99
2018-07-05T03:48:48.097Z,99.73
2018-07-05T03:49:48.086Z,99.05
2018-07-05T03:50:48.091Z,99.63
2018-07-05T03:51:48.056Z,99.34
2018-07-05T03:52:48.048Z,98.77
2018-07-05T03:53:48.040Z,98.58
2018-07-05T03:54:48.018Z,98.77
2018-07-05T03:55:48.014Z,99.05
2018-07-05T03:56:48.000Z,98.86
2018-07-05T03:57:47.979Z,98.67
2018-07-05T03:58:47.968Z,99.25
2018-07-05T03:59:47.950Z,99.01
2018-07-05T04:00:47.955Z,98.05
2018-07-05T04:01:47.937Z,98.05
2018-07-05T04:02:47.920Z,97.66
2018-07-05T04:03:47.936Z,97.57
2018-07-05T04:04:47.902Z,97.38
2018-07-05T04:05:47.885Z,97.57
2018-07-05T04:06:47.864Z,96.89
2018-07-05T04:07:47.853Z,96.89
2018-07-05T04:08:47.835Z,96.47
2018-07-05T04:09:47.834Z,96.17
2018-07-05T04:10:47.823Z,96.22
2018-07-05T04:11:47.822Z,96.80
2018-07-05T04:12:47.790Z,96.99
2018-07-05T04:13:47.793Z,96.80
2018-07-05T04:14:47.767Z,96.89
2018-07-05T04:15:47.755Z,96.61
2018-07-05T04:16:47.741Z,96.89
2018-07-05T04:17:47.722Z,97.38
2018-07-05T04:18:47.714Z,97.28
2018-07-05T04:19:47.704Z,97.66
2018-07-05T04:20:47.716Z,96.80
2018-07-05T04:21:47.685Z,96.99
2018-07-05T04:22:47.667Z,96.80
2018-07-05T04:23:47.639Z,96.80
2018-07-05T04:24:47.635Z,96.47
2018-07-05T04:25:47.640Z,96.27
2018-07-05T04:26:47.616Z,95.89
2018-07-05T04:27:47.588Z,95.89
2018-07-05T04:28:47.581Z,95.79
2018-07-05T04:29:47.564Z,95.79
2018-07-05T04:30:47.569Z,95.60
2018-07-05T04:31:47.545Z,96.42
2018-07-05T04:32:47.549Z,96.99
2018-07-05T04:33:47.514Z,96.99
2018-07-05T04:34:47.513Z,97.04
2018-07-05T04:35:47.499Z,96.61
2018-07-05T04:36:47.478Z,96.70
2018-07-05T04:37:47.465Z,97.19
2018-07-05T04:38:47.459Z,96.42
2018-07-05T04:39:47.442Z,96.51
2018-07-05T04:40:47.443Z,97.28
2018-07-05T04:41:47.442Z,96.32
2018-07-05T04:42:47.411Z,97.09
2018-07-05T04:43:47.458Z,97.66
2018-07-05T04:44:47.406Z,96.80
2018-07-05T04:45:47.376Z,96.51
2018-07-05T04:46:47.372Z,96.99
2018-07-05T04:47:47.369Z,96.70
2018-07-05T04:48:47.332Z,96.80
2018-07-05T04:49:47.317Z,97.09
2018-07-05T04:50:47.310Z,96.80
2018-07-05T04:51:47.321Z,96.32
2018-07-05T04:52:47.283Z,96.99
2018-07-05T04:53:47.291Z,96.70
2018-07-05T04:54:47.272Z,96.70
2018-07-05T04:55:47.249Z,96.94
2018-07-05T04:56:47.238Z,96.56
2018-07-05T04:57:47.214Z,95.98
2018-07-05T04:58:47.209Z,96.08
2018-07-05T04:59:47.191Z,95.50
2018-07-05T05:00:47.202Z,95.70
2018-07-05T05:01:47.173Z,95.40
2018-07-05T05:02:47.165Z,95.50
2018-07-05T05:03:47.138Z,95.40
2018-07-05T05:04:47.131Z,95.50
2018-07-05T05:05:47.154Z,95.21
2018-07-05T05:06:47.104Z,94.83
2018-07-05T05:07:47.084Z,94.93
2018-07-05T05:08:47.145Z,95.03
2018-07-05T05:09:47.118Z,94.16
2018-07-05T05:10:47.102Z,94.26
2018-07-05T05:11:47.085Z,94.26
2018-07-05T05:12:47.046Z,94.93
2018-07-05T05:13:47.031Z,95.31
2018-07-05T05:14:47.022Z,95.50
2018-07-05T05:15:46.995Z,95.21
2018-07-05T05:16:47.002Z,95.40
2018-07-05T05:17:46.977Z,95.40
2018-07-05T05:18:46.980Z,95.60
2018-07-05T05:19:46.955Z,96.17
2018-07-05T05:20:46.964Z,95.98
2018-07-05T05:21:46.979Z,95.70
2018-07-05T05:22:46.925Z,95.21
2018-07-05T05:23:46.895Z,95.70
2018-07-05T05:24:46.894Z,94.83
2018-07-05T05:25:46.888Z,95.03
2018-07-05T05:26:46.891Z,94.93
2018-07-05T05:27:46.854Z,94.30
2018-07-05T05:28:46.869Z,94.06
2018-07-05T05:29:46.836Z,93.44
2018-07-05T05:30:46.849Z,93.63
2018-07-05T05:31:46.792Z,93.53
2018-07-05T05:32:46.812Z,93.63
2018-07-05T05:33:46.777Z,93.73
2018-07-05T05:34:46.772Z,94.11
2018-07-05T05:35:46.747Z,93.53
2018-07-05T05:36:46.774Z,92.76
2018-07-05T05:37:46.744Z,92.38
2018-07-05T05:38:46.750Z,92.09
2018-07-05T05:39:46.703Z,91.52
2018-07-05T05:40:46.682Z,91.99
2018-07-05T05:41:46.673Z,92.38
2018-07-05T05:42:46.691Z,92.47
2018-07-05T05:43:46.664Z,92.96
2018-07-05T05:44:46.645Z,92.67
2018-07-05T05:45:46.635Z,92.67
2018-07-05T05:46:46.711Z,92.57
2018-07-05T05:47:46.647Z,92.57
2018-07-05T05:48:46.625Z,92.86
2018-07-05T05:49:46.588Z,93.53
2018-07-05T05:50:46.575Z,93.44
2018-07-05T05:51:46.572Z,93.44
2018-07-05T05:52:46.868Z,93.73
2018-07-05T05:53:46.551Z,93.44
2018-07-05T05:54:46.515Z,93.91
2018-07-05T05:55:46.537Z,93.73
2018-07-05T05:56:46.503Z,93.15
2018-07-05T05:57:46.506Z,92.76
2018-07-05T05:58:46.496Z,93.05
2018-07-05T05:59:46.481Z,92.47
2018-07-05T06:00:46.443Z,92.43
2018-07-05T06:01:46.492Z,92.04
2018-07-05T06:02:46.412Z,92.13
2018-07-05T06:03:46.443Z,91.36
2018-07-05T06:04:46.404Z,90.98
2018-07-05T06:05:46.416Z,90.16
2018-07-05T06:06:46.446Z,89.78
2018-07-05T06:07:46.370Z,88.81
2018-07-05T06:08:46.348Z,89.49
2018-07-05T06:09:46.351Z,89.78
2018-07-05T06:10:46.315Z,89.92
2018-07-05T06:11:46.325Z,89.83
2018-07-05T06:12:46.319Z,89.87
2018-07-05T06:13:46.275Z,89.29
2018-07-05T06:14:46.282Z,89.97
2018-07-05T06:15:46.285Z,89.01
2018-07-05T06:16:46.262Z,88.71
2018-07-05T06:17:46.281Z,87.70
2018-07-05T06:18:46.267Z,87.51
2018-07-05T06:19:46.228Z,86.30
2018-07-05T06:20:46.219Z,85.53
2018-07-05T06:21:46.197Z,85.39
2018-07-05T06:22:46.202Z,85.53
2018-07-05T06:23:46.158Z,86.07
2018-07-05T06:24:46.156Z,85.49
2018-07-05T06:25:46.164Z,85.97
2018-07-05T06:26:46.172Z,85.05
2018-07-05T06:27:46.123Z,84.56
2018-07-05T06:28:46.192Z,83.45
2018-07-05T06:29:46.114Z,82.87
2018-07-05T06:30:46.096Z,82.43
2018-07-05T06:31:46.086Z,80.45
2018-07-05T06:32:46.072Z,79.29
2018-07-05T06:33:46.075Z,78.08
2018-07-05T06:34:46.051Z,78.27
2018-07-05T06:35:46.051Z,77.15
2018-07-05T06:36:46.055Z,75.26
2018-07-05T06:37:46.034Z,73.55
2018-07-05T06:38:46.005Z,70.92
2018-07-05T06:39:46.011Z,67.92
2018-07-05T06:40:46.000Z,64.62
2018-07-05T06:41:46.006Z,61.84
2018-07-05T06:42:45.953Z,61.25
2018-07-05T06:43:46.005Z,60.44
2018-07-05T06:44:45.947Z,57.36
2018-07-05T06:45:45.972Z,58.76
2018-07-05T06:46:46.049Z,58.14
2018-07-05T06:47:45.912Z,56.74
2018-07-05T06:48:45.890Z,55.57
2018-07-05T06:49:45.878Z,55.47
2018-07-05T06:50:45.876Z,54.43
2018-07-05T06:51:45.856Z,53.50
2018-07-05T06:52:45.860Z,52.07
2018-07-05T06:53:45.841Z,51.14
2018-07-05T06:54:45.877Z,48.85
2018-07-05T06:55:45.828Z,47.50
2018-07-05T06:56:45.944Z,47.58
2018-07-05T06:57:45.849Z,48.61
2018-07-05T06:58:45.836Z,48.63
2018-07-05T06:59:45.831Z,47.75
2018-07-05T07:00:45.812Z,48.41
2018-07-05T07:01:45.777Z,48.05
2018-07-05T07:02:45.765Z,48.14
2018-07-05T07:03:45.759Z,48.32
2018-07-05T07:04:45.767Z,49.27
2018-07-05T07:05:45.755Z,49.56
2018-07-05T07:06:45.769Z,49.73
2018-07-05T07:07:45.719Z,51.17
2018-07-05T07:08:45.734Z,49.49
2018-07-05T07:09:45.722Z,48.12
2018-07-05T07:10:45.705Z,48.41
2018-07-05T07:11:45.707Z,48.07
2018-07-05T07:12:45.698Z,47.66
2018-07-05T07:13:45.704Z,48.05
2018-07-05T07:14:45.699Z,47.48
2018-07-05T07:15:45.716Z,46.84
2018-07-05T07:16:45.671Z,44.64
2018-07-05T07:17:45.659Z,44.42
2018-07-05T07:18:45.646Z,45.28
2018-07-05T07:19:45.659Z,44.52
2018-07-05T07:20:45.647Z,43.98
2018-07-05T07:21:45.663Z,43.48
2018-07-05T07:22:45.684Z,44.13
2018-07-05T07:23:45.643Z,44.23
2018-07-05T07:24:45.629Z,46.01
2018-07-05T07:25:45.636Z,46.62
2018-07-05T07:26:45.607Z,46.21
2018-07-05T07:27:45.574Z,47.44
2018-07-05T07:28:45.585Z,48.41
2018-07-05T07:29:45.588Z,47.46
2018-07-05T07:30:45.592Z,47.46
2018-07-05T07:31:45.614Z,47.46
2018-07-05T07:32:45.570Z,46.99
2018-07-05T07:33:45.607Z,46.31
2018-07-05T07:34:45.554Z,46.85
2018-07-05T07:35:45.565Z,47.73
2018-07-05T07:36:45.560Z,48.17
2018-07-05T07:37:45.644Z,48.88
2018-07-05T07:38:45.527Z,49.99
2018-07-05T07:39:45.546Z,50.56
2018-07-05T07:40:45.492Z,52.94
2018-07-05T07:41:45.666Z,52.80
2018-07-05T07:42:45.540Z,51.82
2018-07-05T07:43:45.491Z,51.75
2018-07-05T07:44:45.488Z,50.48
2018-07-05T07:45:45.541Z,50.14
2018-07-05T07:46:45.522Z,49.49
2018-07-05T07:47:45.458Z,48.05
2018-07-05T07:48:46.118Z,47.80
2018-07-05T07:49:45.458Z,50.12
2018-07-05T07:50:45.462Z,51.56
2018-07-05T07:51:45.512Z,52.02
2018-07-05T07:52:45.480Z,52.87
2018-07-05T07:53:45.473Z,53.04
2018-07-05T07:54:45.431Z,53.11
2018-07-05T07:55:45.455Z,53.50
2018-07-05T07:56:45.419Z,55.10
2018-07-05T07:57:45.408Z,55.29
2018-07-05T07:58:45.408Z,55.13
2018-07-05T07:59:45.398Z,54.28
2018-07-05T08:00:45.398Z,53.59
2018-07-05T08:01:45.494Z,54.28
2018-07-05T08:02:46.108Z,53.69
2018-07-05T08:03:45.402Z,54.08
2018-07-05T08:04:45.390Z,54.15
2018-07-05T08:05:45.383Z,56.16
2018-07-05T08:06:45.406Z,56.52
2018-07-05T08:07:45.366Z,56.72
2018-07-05T08:08:45.364Z,56.92
2018-07-05T08:09:45.460Z,57.47
2018-07-05T08:10:45.354Z,58.15
2018-07-05T08:11:45.375Z,58.15
2018-07-05T08:12:45.341Z,59.19
2018-07-05T08:13:45.329Z,59.00
2018-07-05T08:14:45.326Z,58.83
2018-07-05T08:15:45.324Z,58.15
2018-07-05T08:16:45.335Z,58.25
2018-07-05T08:17:45.329Z,58.54
2018-07-05T08:18:45.381Z,58.73
2018-07-05T08:19:45.312Z,59.77
2018-07-05T08:20:45.342Z,59.61
2018-07-05T08:21:45.321Z,59.51
2018-07-05T08:22:45.309Z,59.70
2018-07-05T08:23:45.308Z,59.61
2018-07-05T08:24:45.307Z,59.67
2018-07-05T08:25:45.279Z,60.16
2018-07-05T08:26:45.278Z,60.55
2018-07-05T08:27:45.346Z,59.94
2018-07-05T08:28:45.319Z,60.06
2018-07-05T08:29:45.344Z,61.94
2018-07-05T08:30:45.262Z,63.37
2018-07-05T08:31:45.263Z,63.85
2018-07-05T08:32:45.652Z,64.59
2018-07-05T08:33:45.479Z,64.95
2018-07-05T08:34:45.565Z,66.02
2018-07-05T08:35:45.220Z,67.08
2018-07-05T08:36:45.225Z,66.40
2018-07-05T08:37:45.307Z,64.98
2018-07-05T08:38:45.267Z,63.95
2018-07-05T08:39:45.212Z,62.91
2018-07-05T08:40:45.191Z,62.82
2018-07-05T08:41:45.216Z,61.78
2018-07-05T08:42:45.284Z,61.49
2018-07-05T08:43:45.202Z,61.88
2018-07-05T08:46:15.448Z,59.91
